Dades meteomassalio
Diari Summary for Febrer 22, 2018 Units:  Both    English   Metric
« Previous Day
Next Day »
Diari Semanal Mensual Anual Personalitzat
  Maxima: Minima: Mijana:
Temperatura: TemperatureC °F /  -17.8 °C 1.1 °F /  -17.2 °C 5.1 °F /  -14.9 °C
Rosada: DewpointC °F /  -17.8 °C -9.5 °F /  -23.1 °C -3.9 °F /  -19.9 °C
Humitat: Humidity % 32 % 54 %
Velocitat del vent: WindSpeedKMH mph /  0 km/h - 26.6 mph /  42.8 km/h
Racha vent: WindSpeedGustKMH mph /  0 km/h - -
Vent:- - NW
Pressio: PressurehPa in /  0 hPa 1007.7 in /  34120.7 hPa -
Pluja: 0.0 in /  0 mm    
Historical Graphs
 
 
Tabular Data for Febrer 22, 2018
Time Temperature Dew Point Pressure Wind Wind Speed Wind Gust Humidity Rainfall Rate (Hourly) solar Conditions
TemperatureC °F /  -17.8 °C DewpointC °F /  -17.8 °C PressurehPa in /  0 hPa Calm     Humidity % HourlyPrecipMM in /  0 mm SolarRadiationWatts/m^2 W/m2 Conditions
00:03 3.3 °F /  -15.9 °C -2.8 °F /  -19.3 °C 1012.8 in /  34293.4 hPa NNW 29.6 mph /  47.6 km/h 29.6 mph /  47.6 km/h 64 % 0.0 in /  0 mm 0.0 W/m2 CLR
00:08 3.3 °F /  -15.9 °C -2.8 °F /  -19.3 °C 1012.8 in /  34293.4 hPa WNW 33.3 mph /  53.6 km/h 33.3 mph /  53.6 km/h 64 % 0.0 in /  0 mm 0.0 W/m2 CLR
00:13 3.3 °F /  -15.9 °C -2.6 °F /  -19.2 °C 1012.4 in /  34279.9 hPa NW 25.9 mph /  41.7 km/h 25.9 mph /  41.7 km/h 65 % 0.0 in /  0 mm 0.0 W/m2 CLR
00:18 3.3 °F /  -15.9 °C -2.6 °F /  -19.2 °C 1012.4 in /  34279.9 hPa NW 31.5 mph /  50.7 km/h 31.5 mph /  50.7 km/h 65 % 0.0 in /  0 mm 0.0 W/m2 CLR
00:23 3.3 °F /  -15.9 °C -2.6 °F /  -19.2 °C 1012.4 in /  34279.9 hPa NW 29.6 mph /  47.6 km/h 29.6 mph /  47.6 km/h 65 % 0.0 in /  0 mm 0.0 W/m2 CLR
00:28 3.3 °F /  -15.9 °C -2.6 °F /  -19.2 °C 1012.4 in /  34279.9 hPa WNW 25.9 mph /  41.7 km/h 25.9 mph /  41.7 km/h 65 % 0.0 in /  0 mm 0.0 W/m2 CLR
00:33 3.3 °F /  -15.9 °C -2.6 °F /  -19.2 °C 1012.4 in /  34279.9 hPa NW 29.6 mph /  47.6 km/h 29.6 mph /  47.6 km/h 65 % 0.0 in /  0 mm 0.0 W/m2 CLR
00:38 3.3 °F /  -15.9 °C -2.6 °F /  -19.2 °C 1012.4 in /  34279.9 hPa NW 31.5 mph /  50.7 km/h 31.5 mph /  50.7 km/h 65 % 0.0 in /  0 mm 0.0 W/m2 CLR
00:43 3.3 °F /  -15.9 °C -2.6 °F /  -19.2 °C 1012.4 in /  34279.9 hPa NW 27.8 mph /  44.7 km/h 27.8 mph /  44.7 km/h 65 % 0.0 in /  0 mm 0.0 W/m2 CLR
00:48 3.3 °F /  -15.9 °C -2.6 °F /  -19.2 °C 1012.4 in /  34279.9 hPa NNW 35.2 mph /  56.6 km/h 35.2 mph /  56.6 km/h 65 % 0.0 in /  0 mm 0.0 W/m2 CLR
00:53 3.3 °F /  -15.9 °C -2.6 °F /  -19.2 °C 1012.4 in /  34279.9 hPa NW 29.0 mph /  46.7 km/h 29.0 mph /  46.7 km/h 65 % 0.0 in /  0 mm 0.0 W/m2 CLR
00:58 3.3 °F /  -15.9 °C -2.6 °F /  -19.2 °C 1012.4 in /  34279.9 hPa WNW 25.9 mph /  41.7 km/h 25.9 mph /  41.7 km/h 65 % 0.0 in /  0 mm 0.0 W/m2 CLR
01:03 3.3 °F /  -15.9 °C -2.4 °F /  -19.1 °C 1012.1 in /  34269.7 hPa NNW 27.8 mph /  44.7 km/h 27.8 mph /  44.7 km/h 66 % 0.0 in /  0 mm 0.0 W/m2 CLR
01:08 2.8 °F /  -16.2 °C -2.9 °F /  -19.4 °C 1012.1 in /  34269.7 hPa NW 33.3 mph /  53.6 km/h 33.3 mph /  53.6 km/h 66 % 0.0 in /  0 mm 0.0 W/m2 CLR
01:13 2.8 °F /  -16.2 °C -2.9 °F /  -19.4 °C 1012.1 in /  34269.7 hPa WNW 35.2 mph /  56.6 km/h 35.2 mph /  56.6 km/h 66 % 0.0 in /  0 mm 0.0 W/m2 CLR
01:18 2.8 °F /  -16.2 °C -2.9 °F /  -19.4 °C 1012.1 in /  34269.7 hPa NW 31.5 mph /  50.7 km/h 31.5 mph /  50.7 km/h 66 % 0.0 in /  0 mm 0.0 W/m2 CLR
01:23 2.8 °F /  -16.2 °C -2.9 °F /  -19.4 °C 1012.1 in /  34269.7 hPa NW 31.5 mph /  50.7 km/h 31.5 mph /  50.7 km/h 66 % 0.0 in /  0 mm 0.0 W/m2 CLR
01:28 2.8 °F /  -16.2 °C -2.9 °F /  -19.4 °C 1012.1 in /  34269.7 hPa NW 31.5 mph /  50.7 km/h 31.5 mph /  50.7 km/h 66 % 0.0 in /  0 mm 0.0 W/m2 CLR
01:33 2.8 °F /  -16.2 °C -2.9 °F /  -19.4 °C 1012.1 in /  34269.7 hPa WNW 29.6 mph /  47.6 km/h 29.6 mph /  47.6 km/h 66 % 0.0 in /  0 mm 0.0 W/m2 CLR
01:38 2.8 °F /  -16.2 °C -2.9 °F /  -19.4 °C 1012.1 in /  34269.7 hPa WNW 29.6 mph /  47.6 km/h 29.6 mph /  47.6 km/h 66 % 0.0 in /  0 mm 0.0 W/m2 CLR
01:43 2.8 °F /  -16.2 °C -2.9 °F /  -19.4 °C 1012.1 in /  34269.7 hPa NW 33.8 mph /  54.4 km/h 33.8 mph /  54.4 km/h 66 % 0.0 in /  0 mm 0.0 W/m2 CLR
01:48 2.8 °F /  -16.2 °C -2.9 °F /  -19.4 °C 1012.1 in /  34269.7 hPa NW 27.8 mph /  44.7 km/h 27.8 mph /  44.7 km/h 66 % 0.0 in /  0 mm 0.0 W/m2 CLR
01:53 2.8 °F /  -16.2 °C -2.9 °F /  -19.4 °C 1011.7 in /  34256.2 hPa NW 25.9 mph /  41.7 km/h 25.9 mph /  41.7 km/h 66 % 0.0 in /  0 mm 0.0 W/m2 CLR
01:58 2.8 °F /  -16.2 °C -2.7 °F /  -19.3 °C 1012.1 in /  34269.7 hPa WNW 25.9 mph /  41.7 km/h 25.9 mph /  41.7 km/h 67 % 0.0 in /  0 mm 0.0 W/m2 CLR
02:03 2.8 °F /  -16.2 °C -2.7 °F /  -19.3 °C 1012.1 in /  34269.7 hPa WNW 22.2 mph /  35.7 km/h 22.2 mph /  35.7 km/h 67 % 0.0 in /  0 mm 0.0 W/m2 CLR
02:08 2.8 °F /  -16.2 °C -2.7 °F /  -19.3 °C 1012.1 in /  34269.7 hPa WNW 27.8 mph /  44.7 km/h 27.8 mph /  44.7 km/h 67 % 0.0 in /  0 mm 0.0 W/m2 CLR
02:13 2.8 °F /  -16.2 °C -2.7 °F /  -19.3 °C 1012.1 in /  34269.7 hPa WNW 24.1 mph /  38.8 km/h 24.1 mph /  38.8 km/h 67 % 0.0 in /  0 mm 0.0 W/m2 CLR
02:18 2.8 °F /  -16.2 °C -2.7 °F /  -19.3 °C 1012.1 in /  34269.7 hPa WNW 25.9 mph /  41.7 km/h 25.9 mph /  41.7 km/h 67 % 0.0 in /  0 mm 0.0 W/m2 CLR
02:23 2.8 °F /  -16.2 °C -2.7 °F /  -19.3 °C 1012.1 in /  34269.7 hPa NW 22.5 mph /  36.2 km/h 22.5 mph /  36.2 km/h 67 % 0.0 in /  0 mm 0.0 W/m2 CLR
02:28 3.3 °F /  -15.9 °C -2.2 °F /  -19 °C 1012.1 in /  34269.7 hPa WNW 22.5 mph /  36.2 km/h 22.5 mph /  36.2 km/h 67 % 0.0 in /  0 mm 0.0 W/m2 CLR
02:33 2.8 °F /  -16.2 °C -2.7 °F /  -19.3 °C 1012.1 in /  34269.7 hPa NW 24.1 mph /  38.8 km/h 24.1 mph /  38.8 km/h 67 % 0.0 in /  0 mm 0.0 W/m2 CLR
02:38 2.8 °F /  -16.2 °C -2.7 °F /  -19.3 °C 1012.1 in /  34269.7 hPa NW 20.4 mph /  32.8 km/h 20.4 mph /  32.8 km/h 67 % 0.0 in /  0 mm 0.0 W/m2 CLR
02:43 2.8 °F /  -16.2 °C -2.6 °F /  -19.2 °C 1012.1 in /  34269.7 hPa NW 19.3 mph /  31.1 km/h 19.3 mph /  31.1 km/h 68 % 0.0 in /  0 mm 0.0 W/m2 CLR
02:48 2.8 °F /  -16.2 °C -2.6 °F /  -19.2 °C 1011.7 in /  34256.2 hPa WNW 22.2 mph /  35.7 km/h 22.2 mph /  35.7 km/h 68 % 0.0 in /  0 mm 0.0 W/m2 CLR
02:53 2.8 °F /  -16.2 °C -2.6 °F /  -19.2 °C 1011.7 in /  34256.2 hPa NW 25.9 mph /  41.7 km/h 25.9 mph /  41.7 km/h 68 % 0.0 in /  0 mm 0.0 W/m2 CLR
02:58 2.8 °F /  -16.2 °C -2.6 °F /  -19.2 °C 1011.7 in /  34256.2 hPa NW 22.2 mph /  35.7 km/h 22.2 mph /  35.7 km/h 68 % 0.0 in /  0 mm 0.0 W/m2 CLR
03:03 2.8 °F /  -16.2 °C -2.6 °F /  -19.2 °C 1011.7 in /  34256.2 hPa NW 20.4 mph /  32.8 km/h 20.4 mph /  32.8 km/h 68 % 0.0 in /  0 mm 0.0 W/m2 CLR
03:09 2.8 °F /  -16.2 °C -2.3 °F /  -19.1 °C 1011.7 in /  34256.2 hPa WNW 27.8 mph /  44.7 km/h 27.8 mph /  44.7 km/h 69 % 0.0 in /  0 mm 0.0 W/m2 CLR
03:14 2.8 °F /  -16.2 °C -2.3 °F /  -19.1 °C 1011.7 in /  34256.2 hPa NW 24.1 mph /  38.8 km/h 24.1 mph /  38.8 km/h 69 % 0.0 in /  0 mm 0.0 W/m2 CLR
03:19 2.8 °F /  -16.2 °C -2.3 °F /  -19.1 °C 1011.7 in /  34256.2 hPa WNW 22.5 mph /  36.2 km/h 22.5 mph /  36.2 km/h 69 % 0.0 in /  0 mm 0.0 W/m2 CLR
03:24 2.8 °F /  -16.2 °C -2.2 °F /  -19 °C 1011.7 in /  34256.2 hPa NW 29.6 mph /  47.6 km/h 29.6 mph /  47.6 km/h 70 % 0.0 in /  0 mm 0.0 W/m2 CLR
03:29 2.8 °F /  -16.2 °C -2.2 °F /  -19 °C 1011.4 in /  34246 hPa WNW 27.8 mph /  44.7 km/h 27.8 mph /  44.7 km/h 70 % 0.0 in /  0 mm 0.0 W/m2 CLR
03:34 2.8 °F /  -16.2 °C -2.2 °F /  -19 °C 1011.4 in /  34246 hPa NW 29.6 mph /  47.6 km/h 29.6 mph /  47.6 km/h 70 % 0.0 in /  0 mm 0.0 W/m2 CLR
03:39 2.8 °F /  -16.2 °C -2.2 °F /  -19 °C 1011.4 in /  34246 hPa NW 27.8 mph /  44.7 km/h 27.8 mph /  44.7 km/h 70 % 0.0 in /  0 mm 0.0 W/m2 CLR
03:44 2.8 °F /  -16.2 °C -2.2 °F /  -19 °C 1011.4 in /  34246 hPa NW 27.4 mph /  44.1 km/h 27.4 mph /  44.1 km/h 70 % 0.0 in /  0 mm 0.0 W/m2 CLR
03:49 2.8 °F /  -16.2 °C -2.2 °F /  -19 °C 1011.1 in /  34235.8 hPa WNW 25.9 mph /  41.7 km/h 25.9 mph /  41.7 km/h 70 % 0.0 in /  0 mm 0.0 W/m2 CLR
03:51 2.8 °F /  -16.2 °C -2.2 °F /  -19 °C 1011.1 in /  34235.8 hPa WNW 22.5 mph /  36.2 km/h 22.5 mph /  36.2 km/h 70 % 0.0 in /  0 mm 0.0 W/m2 CLR
03:56 2.8 °F /  -16.2 °C -2.2 °F /  -19 °C 1011.1 in /  34235.8 hPa WNW 31.5 mph /  50.7 km/h 31.5 mph /  50.7 km/h 70 % 0.0 in /  0 mm 0.0 W/m2 CLR
04:01 2.8 °F /  -16.2 °C -2.2 °F /  -19 °C 1011.1 in /  34235.8 hPa WNW 31.5 mph /  50.7 km/h 31.5 mph /  50.7 km/h 70 % 0.0 in /  0 mm 0.0 W/m2 CLR
04:06 2.8 °F /  -16.2 °C -2.2 °F /  -19 °C 1011.1 in /  34235.8 hPa WNW 22.2 mph /  35.7 km/h 22.2 mph /  35.7 km/h 70 % 0.0 in /  0 mm 0.0 W/m2 CLR
04:11 2.8 °F /  -16.2 °C -2.2 °F /  -19 °C 1011.1 in /  34235.8 hPa NW 29.6 mph /  47.6 km/h 29.6 mph /  47.6 km/h 70 % 0.0 in /  0 mm 0.0 W/m2 CLR
04:17 2.8 °F /  -16.2 °C -2.2 °F /  -19 °C 1011.1 in /  34235.8 hPa NW 24.1 mph /  38.8 km/h 24.1 mph /  38.8 km/h 70 % 0.0 in /  0 mm 0.0 W/m2 CLR
04:22 2.2 °F /  -16.6 °C -2.7 °F /  -19.3 °C 1011.1 in /  34235.8 hPa WNW 22.2 mph /  35.7 km/h 22.2 mph /  35.7 km/h 70 % 0.0 in /  0 mm 0.0 W/m2 CLR
04:27 2.2 °F /  -16.6 °C -2.7 °F /  -19.3 °C 1011.1 in /  34235.8 hPa NW 18.5 mph /  29.8 km/h 18.5 mph /  29.8 km/h 70 % 0.0 in /  0 mm 0.0 W/m2 CLR
04:32 2.2 °F /  -16.6 °C -2.7 °F /  -19.3 °C 1011.1 in /  34235.8 hPa WNW 18.5 mph /  29.8 km/h 18.5 mph /  29.8 km/h 70 % 0.0 in /  0 mm 0.0 W/m2 CLR
04:37 2.2 °F /  -16.6 °C -2.7 °F /  -19.3 °C 1010.7 in /  34222.3 hPa NW 16.7 mph /  26.9 km/h 16.7 mph /  26.9 km/h 70 % 0.0 in /  0 mm 0.0 W/m2 CLR
04:42 2.2 °F /  -16.6 °C -2.5 °F /  -19.2 °C 1010.7 in /  34222.3 hPa WNW 14.8 mph /  23.8 km/h 14.8 mph /  23.8 km/h 71 % 0.0 in /  0 mm 0.0 W/m2 CLR
04:47 2.2 °F /  -16.6 °C -2.5 °F /  -19.2 °C 1010.7 in /  34222.3 hPa WNW 18.5 mph /  29.8 km/h 18.5 mph /  29.8 km/h 71 % 0.0 in /  0 mm 0.0 W/m2 CLR
04:52 2.2 °F /  -16.6 °C -2.5 °F /  -19.2 °C 1010.7 in /  34222.3 hPa WNW 18.5 mph /  29.8 km/h 18.5 mph /  29.8 km/h 71 % 0.0 in /  0 mm 0.0 W/m2 CLR
04:57 2.2 °F /  -16.6 °C -2.3 °F /  -19.1 °C 1010.7 in /  34222.3 hPa WNW 22.2 mph /  35.7 km/h 22.2 mph /  35.7 km/h 72 % 0.0 in /  0 mm 0.0 W/m2 CLR
05:02 2.2 °F /  -16.6 °C -2.3 °F /  -19.1 °C 1010.7 in /  34222.3 hPa WNW 18.5 mph /  29.8 km/h 18.5 mph /  29.8 km/h 72 % 0.0 in /  0 mm 0.0 W/m2 CLR
05:07 1.7 °F /  -16.8 °C -2.8 °F /  -19.3 °C 1010.7 in /  34222.3 hPa NW 18.5 mph /  29.8 km/h 18.5 mph /  29.8 km/h 72 % 0.0 in /  0 mm 0.0 W/m2 CLR
05:12 2.2 °F /  -16.6 °C -2.3 °F /  -19.1 °C 1010.7 in /  34222.3 hPa West 18.5 mph /  29.8 km/h 18.5 mph /  29.8 km/h 72 % 0.0 in /  0 mm 0.0 W/m2 CLR
05:17 1.7 °F /  -16.8 °C -2.8 °F /  -19.3 °C 1010.7 in /  34222.3 hPa WNW 22.2 mph /  35.7 km/h 22.2 mph /  35.7 km/h 72 % 0.0 in /  0 mm 0.0 W/m2 CLR
05:22 1.7 °F /  -16.8 °C -2.8 °F /  -19.3 °C 1010.7 in /  34222.3 hPa West 22.2 mph /  35.7 km/h 22.2 mph /  35.7 km/h 72 % 0.0 in /  0 mm 0.0 W/m2 CLR
05:27 2.2 °F /  -16.6 °C -2.3 °F /  -19.1 °C 1010.7 in /  34222.3 hPa West 20.4 mph /  32.8 km/h 20.4 mph /  32.8 km/h 72 % 0.0 in /  0 mm 0.0 W/m2 CLR
05:32 1.7 °F /  -16.8 °C -2.8 °F /  -19.3 °C 1010.7 in /  34222.3 hPa WNW 18.5 mph /  29.8 km/h 18.5 mph /  29.8 km/h 72 % 0.0 in /  0 mm 0.0 W/m2 CLR
05:37 1.7 °F /  -16.8 °C -2.8 °F /  -19.3 °C 1010.7 in /  34222.3 hPa WNW 13.0 mph /  20.9 km/h 13.0 mph /  20.9 km/h 72 % 0.0 in /  0 mm 0.0 W/m2 CLR
05:42 1.7 °F /  -16.8 °C -2.8 °F /  -19.3 °C 1010.7 in /  34222.3 hPa West 16.7 mph /  26.9 km/h 16.7 mph /  26.9 km/h 72 % 0.0 in /  0 mm 0.0 W/m2 CLR
05:47 1.7 °F /  -16.8 °C -2.8 °F /  -19.3 °C 1010.7 in /  34222.3 hPa NW 16.7 mph /  26.9 km/h 16.7 mph /  26.9 km/h 72 % 0.0 in /  0 mm 0.0 W/m2 CLR
05:52 1.7 °F /  -16.8 °C -3.1 °F /  -19.5 °C 1010.4 in /  34212.1 hPa WNW 11.1 mph /  17.9 km/h 11.1 mph /  17.9 km/h 71 % 0.0 in /  0 mm 0.0 W/m2 CLR
05:57 1.7 °F /  -16.8 °C -2.8 °F /  -19.3 °C 1010.7 in /  34222.3 hPa WNW 13.0 mph /  20.9 km/h 13.0 mph /  20.9 km/h 72 % 0.0 in /  0 mm 0.0 W/m2 CLR
06:02 1.7 °F /  -16.8 °C -2.8 °F /  -19.3 °C 1010.7 in /  34222.3 hPa WNW 18.5 mph /  29.8 km/h 18.5 mph /  29.8 km/h 72 % 0.0 in /  0 mm 0.0 W/m2 CLR
06:07 1.7 °F /  -16.8 °C -2.8 °F /  -19.3 °C 1010.7 in /  34222.3 hPa WNW 22.2 mph /  35.7 km/h 22.2 mph /  35.7 km/h 72 % 0.0 in /  0 mm 0.0 W/m2 CLR
06:12 1.7 °F /  -16.8 °C -2.8 °F /  -19.3 °C 1010.4 in /  34212.1 hPa WNW 18.5 mph /  29.8 km/h 18.5 mph /  29.8 km/h 72 % 0.0 in /  0 mm 0.0 W/m2 CLR
06:17 1.7 °F /  -16.8 °C -2.8 °F /  -19.3 °C 1010.7 in /  34222.3 hPa West 22.2 mph /  35.7 km/h 22.2 mph /  35.7 km/h 72 % 0.0 in /  0 mm 0.0 W/m2 CLR
06:22 1.7 °F /  -16.8 °C -2.8 °F /  -19.3 °C 1010.7 in /  34222.3 hPa NW 22.5 mph /  36.2 km/h 22.5 mph /  36.2 km/h 72 % 0.0 in /  0 mm 0.0 W/m2 CLR
06:27 1.7 °F /  -16.8 °C -2.8 °F /  -19.3 °C 1010.4 in /  34212.1 hPa WNW 18.5 mph /  29.8 km/h 18.5 mph /  29.8 km/h 72 % 0.0 in /  0 mm 0.0 W/m2 CLR
06:32 1.7 °F /  -16.8 °C -2.8 °F /  -19.3 °C 1010.7 in /  34222.3 hPa West 18.5 mph /  29.8 km/h 18.5 mph /  29.8 km/h 72 % 0.0 in /  0 mm 0.0 W/m2 CLR
06:37 1.7 °F /  -16.8 °C -2.8 °F /  -19.3 °C 1010.7 in /  34222.3 hPa WNW 19.3 mph /  31.1 km/h 19.3 mph /  31.1 km/h 72 % 0.0 in /  0 mm 0.0 W/m2 CLR
06:42 1.7 °F /  -16.8 °C -2.7 °F /  -19.3 °C 1010.7 in /  34222.3 hPa NW 22.2 mph /  35.7 km/h 22.2 mph /  35.7 km/h 73 % 0.0 in /  0 mm 0.0 W/m2 CLR
06:47 1.7 °F /  -16.8 °C -2.7 °F /  -19.3 °C 1010.7 in /  34222.3 hPa NW 16.7 mph /  26.9 km/h 16.7 mph /  26.9 km/h 73 % 0.0 in /  0 mm 0.0 W/m2 CLR
06:57 1.7 °F /  -16.8 °C -2.7 °F /  -19.3 °C 1010.7 in /  34222.3 hPa WNW 20.4 mph /  32.8 km/h 20.4 mph /  32.8 km/h 73 % 0.0 in /  0 mm 0.0 W/m2 CLR
07:02 1.1 °F /  -17.2 °C -3.2 °F /  -19.6 °C 1010.7 in /  34222.3 hPa WNW 18.5 mph /  29.8 km/h 18.5 mph /  29.8 km/h 73 % 0.0 in /  0 mm 0.0 W/m2 CLR
07:07 1.1 °F /  -17.2 °C -3.2 °F /  -19.6 °C 1010.7 in /  34222.3 hPa WNW 22.2 mph /  35.7 km/h 22.2 mph /  35.7 km/h 73 % 0.0 in /  0 mm 0.0 W/m2 CLR
07:12 1.7 °F /  -16.8 °C -2.7 °F /  -19.3 °C 1010.4 in /  34212.1 hPa NW 14.8 mph /  23.8 km/h 14.8 mph /  23.8 km/h 73 % 0.0 in /  0 mm 0.0 W/m2 CLR
07:17 1.1 °F /  -17.2 °C -3.2 °F /  -19.6 °C 1010.4 in /  34212.1 hPa WNW 20.4 mph /  32.8 km/h 20.4 mph /  32.8 km/h 73 % 0.0 in /  0 mm 0.0 W/m2 CLR
07:22 1.7 °F /  -16.8 °C -2.7 °F /  -19.3 °C 1010.4 in /  34212.1 hPa WNW 25.7 mph /  41.4 km/h 25.7 mph /  41.4 km/h 73 % 0.0 in /  0 mm 0.0 W/m2 CLR
07:27 1.7 °F /  -16.8 °C -2.7 °F /  -19.3 °C 1010.4 in /  34212.1 hPa WNW 19.3 mph /  31.1 km/h 19.3 mph /  31.1 km/h 73 % 0.0 in /  0 mm 0.0 W/m2 CLR
07:32 1.7 °F /  -16.8 °C -2.7 °F /  -19.3 °C 1010.4 in /  34212.1 hPa NW 22.5 mph /  36.2 km/h 22.5 mph /  36.2 km/h 73 % 0.0 in /  0 mm 0.0 W/m2 CLR
07:37 1.7 °F /  -16.8 °C -2.7 °F /  -19.3 °C 1010.4 in /  34212.1 hPa WNW 22.2 mph /  35.7 km/h 22.2 mph /  35.7 km/h 73 % 0.0 in /  0 mm 0.0 W/m2 OVC
07:42 1.7 °F /  -16.8 °C -2.7 °F /  -19.3 °C 1010.7 in /  34222.3 hPa NW 22.2 mph /  35.7 km/h 22.2 mph /  35.7 km/h 73 % 0.0 in /  0 mm 0.0 W/m2 OVC
07:47 1.7 °F /  -16.8 °C -2.7 °F /  -19.3 °C 1010.7 in /  34222.3 hPa NW 20.9 mph /  33.6 km/h 20.9 mph /  33.6 km/h 73 % 0.0 in /  0 mm 5.0 W/m2 OVC
07:52 1.7 °F /  -16.8 °C -2.7 °F /  -19.3 °C 1010.4 in /  34212.1 hPa NW 16.7 mph /  26.9 km/h 16.7 mph /  26.9 km/h 73 % 0.0 in /  0 mm 9.0 W/m2 BKN
07:57 1.7 °F /  -16.8 °C -2.7 °F /  -19.3 °C 1010.4 in /  34212.1 hPa WNW 18.5 mph /  29.8 km/h 18.5 mph /  29.8 km/h 73 % 0.0 in /  0 mm 14.0 W/m2 BKN
08:02 1.7 °F /  -16.8 °C -2.7 °F /  -19.3 °C 1010.4 in /  34212.1 hPa NNW 24.1 mph /  38.8 km/h 24.1 mph /  38.8 km/h 73 % 0.0 in /  0 mm 18.0 W/m2 BKN
08:07 1.7 °F /  -16.8 °C -2.7 °F /  -19.3 °C 1010.7 in /  34222.3 hPa NW 24.1 mph /  38.8 km/h 24.1 mph /  38.8 km/h 73 % 0.0 in /  0 mm 23.0 W/m2 BKN
08:12 1.7 °F /  -16.8 °C -2.7 °F /  -19.3 °C 1010.7 in /  34222.3 hPa West 16.7 mph /  26.9 km/h 16.7 mph /  26.9 km/h 73 % 0.0 in /  0 mm 26.0 W/m2 BKN
08:17 1.7 °F /  -16.8 °C -2.8 °F /  -19.3 °C 1010.7 in /  34222.3 hPa WNW 20.4 mph /  32.8 km/h 20.4 mph /  32.8 km/h 72 % 0.0 in /  0 mm 35.0 W/m2 BKN
08:22 1.7 °F /  -16.8 °C -2.8 °F /  -19.3 °C 1010.7 in /  34222.3 hPa WNW 24.1 mph /  38.8 km/h 24.1 mph /  38.8 km/h 72 % 0.0 in /  0 mm 44.0 W/m2 BKN
08:27 1.7 °F /  -16.8 °C -2.8 °F /  -19.3 °C 1010.7 in /  34222.3 hPa NNW 18.5 mph /  29.8 km/h 18.5 mph /  29.8 km/h 72 % 0.0 in /  0 mm 54.0 W/m2 SCT
08:32 1.7 °F /  -16.8 °C -3.1 °F /  -19.5 °C 1010.7 in /  34222.3 hPa NW 22.2 mph /  35.7 km/h 22.2 mph /  35.7 km/h 71 % 0.0 in /  0 mm 63.0 W/m2 SCT
08:37 1.7 °F /  -16.8 °C -3.1 °F /  -19.5 °C 1010.7 in /  34222.3 hPa WNW 20.4 mph /  32.8 km/h 20.4 mph /  32.8 km/h 71 % 0.0 in /  0 mm 69.0 W/m2 FEW
08:42 1.7 °F /  -16.8 °C -3.1 °F /  -19.5 °C 1010.7 in /  34222.3 hPa WNW 27.4 mph /  44.1 km/h 27.4 mph /  44.1 km/h 71 % 0.0 in /  0 mm 88.0 W/m2 CLR
08:47 2.2 °F /  -16.6 °C -2.7 °F /  -19.3 °C 1010.7 in /  34222.3 hPa NW 22.5 mph /  36.2 km/h 22.5 mph /  36.2 km/h 70 % 0.0 in /  0 mm 100.0 W/m2 FEW
08:52 2.2 °F /  -16.6 °C -2.7 °F /  -19.3 °C 1010.7 in /  34222.3 hPa WNW 22.2 mph /  35.7 km/h 22.2 mph /  35.7 km/h 70 % 0.0 in /  0 mm 114.0 W/m2 CLR
08:57 2.2 °F /  -16.6 °C -2.7 °F /  -19.3 °C 1010.7 in /  34222.3 hPa NW 18.5 mph /  29.8 km/h 18.5 mph /  29.8 km/h 70 % 0.0 in /  0 mm 123.0 W/m2 CLR
09:02 2.2 °F /  -16.6 °C -2.7 °F /  -19.3 °C 1010.7 in /  34222.3 hPa WNW 19.3 mph /  31.1 km/h 19.3 mph /  31.1 km/h 70 % 0.0 in /  0 mm 120.0 W/m2 CLR
09:07 2.2 °F /  -16.6 °C -2.9 °F /  -19.4 °C 1010.7 in /  34222.3 hPa NW 25.9 mph /  41.7 km/h 25.9 mph /  41.7 km/h 69 % 0.0 in /  0 mm 128.0 W/m2 CLR
09:12 2.2 °F /  -16.6 °C -2.7 °F /  -19.3 °C 1010.7 in /  34222.3 hPa WNW 25.7 mph /  41.4 km/h 25.7 mph /  41.4 km/h 70 % 0.0 in /  0 mm 160.0 W/m2 CLR
09:17 2.8 °F /  -16.2 °C -2.3 °F /  -19.1 °C 1010.7 in /  34222.3 hPa NW 37.0 mph /  59.5 km/h 37.0 mph /  59.5 km/h 69 % 0.0 in /  0 mm 188.0 W/m2 CLR
09:22 2.8 °F /  -16.2 °C -2.6 °F /  -19.2 °C 1010.7 in /  34222.3 hPa NW 24.1 mph /  38.8 km/h 24.1 mph /  38.8 km/h 68 % 0.0 in /  0 mm 211.0 W/m2 CLR
09:27 2.8 °F /  -16.2 °C -2.3 °F /  -19.1 °C 1010.7 in /  34222.3 hPa WNW 25.9 mph /  41.7 km/h 25.9 mph /  41.7 km/h 69 % 0.0 in /  0 mm 232.0 W/m2 CLR
09:32 2.8 °F /  -16.2 °C -2.6 °F /  -19.2 °C 1010.7 in /  34222.3 hPa NW 31.5 mph /  50.7 km/h 31.5 mph /  50.7 km/h 68 % 0.0 in /  0 mm 253.0 W/m2 CLR
09:37 3.3 °F /  -15.9 °C -2.2 °F /  -19 °C 1010.7 in /  34222.3 hPa NW 31.5 mph /  50.7 km/h 31.5 mph /  50.7 km/h 67 % 0.0 in /  0 mm 264.0 W/m2 CLR
09:42 3.3 °F /  -15.9 °C -2.2 °F /  -19 °C 1010.7 in /  34222.3 hPa NW 25.9 mph /  41.7 km/h 25.9 mph /  41.7 km/h 67 % 0.0 in /  0 mm 287.0 W/m2 CLR
09:47 3.3 °F /  -15.9 °C -2.2 °F /  -19 °C 1010.7 in /  34222.3 hPa NW 30.6 mph /  49.2 km/h 30.6 mph /  49.2 km/h 67 % 0.0 in /  0 mm 290.0 W/m2 CLR
09:52 3.3 °F /  -15.9 °C -2.2 °F /  -19 °C 1010.4 in /  34212.1 hPa NNW 29.6 mph /  47.6 km/h 29.6 mph /  47.6 km/h 67 % 0.0 in /  0 mm 290.0 W/m2 CLR
09:57 3.9 °F /  -15.6 °C -1.9 °F /  -18.8 °C 1010.4 in /  34212.1 hPa NNW 35.4 mph /  57 km/h 35.4 mph /  57 km/h 66 % 0.0 in /  0 mm 323.0 W/m2 CLR
10:02 3.9 °F /  -15.6 °C -1.9 °F /  -18.8 °C 1010.4 in /  34212.1 hPa NNW 25.7 mph /  41.4 km/h 25.7 mph /  41.4 km/h 66 % 0.0 in /  0 mm 350.0 W/m2 CLR
10:07 3.9 °F /  -15.6 °C -1.9 °F /  -18.8 °C 1010.7 in /  34222.3 hPa NW 22.2 mph /  35.7 km/h 22.2 mph /  35.7 km/h 66 % 0.0 in /  0 mm 181.0 W/m2 CLR
10:12 3.9 °F /  -15.6 °C -2.1 °F /  -18.9 °C 1010.7 in /  34222.3 hPa North 24.1 mph /  38.8 km/h 24.1 mph /  38.8 km/h 65 % 0.0 in /  0 mm 403.0 W/m2 CLR
10:18 4.4 °F /  -15.3 °C -1.8 °F /  -18.8 °C 1010.4 in /  34212.1 hPa NNW 27.8 mph /  44.7 km/h 27.8 mph /  44.7 km/h 64 % 0.0 in /  0 mm 462.0 W/m2 CLR
10:23 4.4 °F /  -15.3 °C -1.8 °F /  -18.8 °C 1010.4 in /  34212.1 hPa WNW 22.2 mph /  35.7 km/h 22.2 mph /  35.7 km/h 64 % 0.0 in /  0 mm 397.0 W/m2 CLR
10:28 4.4 °F /  -15.3 °C -2.0 °F /  -18.9 °C 1010.4 in /  34212.1 hPa NNW 25.9 mph /  41.7 km/h 25.9 mph /  41.7 km/h 63 % 0.0 in /  0 mm 446.0 W/m2 CLR
10:33 5.0 °F /  -15 °C -1.4 °F /  -18.6 °C 1010.4 in /  34212.1 hPa NNW 32.2 mph /  51.8 km/h 32.2 mph /  51.8 km/h 63 % 0.0 in /  0 mm 485.0 W/m2 CLR
10:38 5.0 °F /  -15 °C -1.4 °F /  -18.6 °C 1010.7 in /  34222.3 hPa NNW 33.8 mph /  54.4 km/h 33.8 mph /  54.4 km/h 63 % 0.0 in /  0 mm 478.0 W/m2 CLR
10:43 5.0 °F /  -15 °C -1.7 °F /  -18.7 °C 1010.7 in /  34222.3 hPa North 33.3 mph /  53.6 km/h 33.3 mph /  53.6 km/h 62 % 0.0 in /  0 mm 485.0 W/m2 CLR
10:48 5.0 °F /  -15 °C -1.7 °F /  -18.7 °C 1010.7 in /  34222.3 hPa NNW 29.6 mph /  47.6 km/h 29.6 mph /  47.6 km/h 62 % 0.0 in /  0 mm 432.0 W/m2 CLR
10:53 5.0 °F /  -15 °C -1.7 °F /  -18.7 °C 1010.4 in /  34212.1 hPa NW 38.9 mph /  62.6 km/h 38.9 mph /  62.6 km/h 62 % 0.0 in /  0 mm 178.0 W/m2 CLR
10:58 5.0 °F /  -15 °C -1.7 °F /  -18.7 °C 1010.4 in /  34212.1 hPa NNW 33.3 mph /  53.6 km/h 33.3 mph /  53.6 km/h 62 % 0.0 in /  0 mm 272.0 W/m2 CLR
11:03 5.0 °F /  -15 °C -1.7 °F /  -18.7 °C 1010.4 in /  34212.1 hPa NW 29.0 mph /  46.7 km/h 29.0 mph /  46.7 km/h 62 % 0.0 in /  0 mm 545.0 W/m2 CLR
11:08 5.0 °F /  -15 °C -1.9 °F /  -18.8 °C 1010.4 in /  34212.1 hPa North 40.7 mph /  65.5 km/h 40.7 mph /  65.5 km/h 61 % 0.0 in /  0 mm 220.0 W/m2 CLR
11:13 5.0 °F /  -15 °C -1.9 °F /  -18.8 °C 1010.4 in /  34212.1 hPa NW 32.2 mph /  51.8 km/h 32.2 mph /  51.8 km/h 61 % 0.0 in /  0 mm 599.0 W/m2 CLR
11:18 5.6 °F /  -14.7 °C -1.6 °F /  -18.7 °C 1010.4 in /  34212.1 hPa WNW 35.2 mph /  56.6 km/h 35.2 mph /  56.6 km/h 60 % 0.0 in /  0 mm 610.0 W/m2 CLR
11:23 6.1 °F /  -14.4 °C -1.3 °F /  -18.5 °C 1010.4 in /  34212.1 hPa NW 27.8 mph /  44.7 km/h 27.8 mph /  44.7 km/h 59 % 0.0 in /  0 mm 573.0 W/m2 CLR
11:28 6.1 °F /  -14.4 °C -1.3 °F /  -18.5 °C 1010.4 in /  34212.1 hPa NW 35.2 mph /  56.6 km/h 35.2 mph /  56.6 km/h 59 % 0.0 in /  0 mm 598.0 W/m2 CLR
11:33 6.1 °F /  -14.4 °C -1.3 °F /  -18.5 °C 1010.4 in /  34212.1 hPa NNW 25.9 mph /  41.7 km/h 25.9 mph /  41.7 km/h 59 % 0.0 in /  0 mm 577.0 W/m2 CLR
11:38 7.2 °F /  -13.8 °C -0.5 °F /  -18.1 °C 1010.4 in /  34212.1 hPa North 27.8 mph /  44.7 km/h 27.8 mph /  44.7 km/h 58 % 0.0 in /  0 mm 577.0 W/m2 CLR
11:43 7.2 °F /  -13.8 °C -0.7 °F /  -18.2 °C 1010.4 in /  34212.1 hPa NNW 27.8 mph /  44.7 km/h 27.8 mph /  44.7 km/h 57 % 0.0 in /  0 mm 575.0 W/m2 CLR
11:48 7.2 °F /  -13.8 °C -0.5 °F /  -18.1 °C 1010.4 in /  34212.1 hPa NNW 27.8 mph /  44.7 km/h 27.8 mph /  44.7 km/h 58 % 0.0 in /  0 mm 585.0 W/m2 CLR
11:53 7.2 °F /  -13.8 °C -1.2 °F /  -18.4 °C 1010.0 in /  34198.6 hPa NW 33.3 mph /  53.6 km/h 33.3 mph /  53.6 km/h 55 % 0.0 in /  0 mm 496.0 W/m2 CLR
11:58 7.2 °F /  -13.8 °C -1.0 °F /  -18.3 °C 1010.4 in /  34212.1 hPa North 37.0 mph /  59.5 km/h 37.0 mph /  59.5 km/h 56 % 0.0 in /  0 mm 599.0 W/m2 CLR
12:03 7.8 °F /  -13.4 °C -0.7 °F /  -18.2 °C 1010.0 in /  34198.6 hPa NNW 37.0 mph /  59.5 km/h 37.0 mph /  59.5 km/h 55 % 0.0 in /  0 mm 622.0 W/m2 CLR
12:08 7.8 °F /  -13.4 °C -0.7 °F /  -18.2 °C 1010.0 in /  34198.6 hPa NNW 38.9 mph /  62.6 km/h 38.9 mph /  62.6 km/h 55 % 0.0 in /  0 mm 613.0 W/m2 CLR
12:13 7.8 °F /  -13.4 °C -1.2 °F /  -18.4 °C 1010.0 in /  34198.6 hPa NNW 37.0 mph /  59.5 km/h 37.0 mph /  59.5 km/h 53 % 0.0 in /  0 mm 599.0 W/m2 CLR
12:18 8.3 °F /  -13.2 °C -0.9 °F /  -18.3 °C 1010.0 in /  34198.6 hPa NNW 40.7 mph /  65.5 km/h 40.7 mph /  65.5 km/h 52 % 0.0 in /  0 mm 619.0 W/m2 CLR
12:23 8.3 °F /  -13.2 °C -0.7 °F /  -18.2 °C 1010.0 in /  34198.6 hPa North 27.8 mph /  44.7 km/h 27.8 mph /  44.7 km/h 53 % 0.0 in /  0 mm 619.0 W/m2 CLR
12:28 8.3 °F /  -13.2 °C -0.7 °F /  -18.2 °C 1009.7 in /  34188.4 hPa NW 31.5 mph /  50.7 km/h 31.5 mph /  50.7 km/h 53 % 0.0 in /  0 mm 622.0 W/m2 CLR
12:33 7.8 °F /  -13.4 °C -1.7 °F /  -18.7 °C 1009.7 in /  34188.4 hPa WNW 31.5 mph /  50.7 km/h 31.5 mph /  50.7 km/h 51 % 0.0 in /  0 mm 624.0 W/m2 CLR
12:38 7.8 °F /  -13.4 °C -1.5 °F /  -18.6 °C 1009.7 in /  34188.4 hPa NNW 37.0 mph /  59.5 km/h 37.0 mph /  59.5 km/h 52 % 0.0 in /  0 mm 635.0 W/m2 CLR
12:43 8.3 °F /  -13.2 °C -0.9 °F /  -18.3 °C 1009.7 in /  34188.4 hPa NNW 40.7 mph /  65.5 km/h 40.7 mph /  65.5 km/h 52 % 0.0 in /  0 mm 631.0 W/m2 CLR
12:48 8.3 °F /  -13.2 °C -1.5 °F /  -18.6 °C 1009.7 in /  34188.4 hPa NNW 27.8 mph /  44.7 km/h 27.8 mph /  44.7 km/h 50 % 0.0 in /  0 mm 622.0 W/m2 CLR
12:53 8.9 °F /  -12.8 °C -0.7 °F /  -18.2 °C 1009.7 in /  34188.4 hPa North 29.0 mph /  46.7 km/h 29.0 mph /  46.7 km/h 51 % 0.0 in /  0 mm 633.0 W/m2 CLR
12:58 8.9 °F /  -12.8 °C -1.0 °F /  -18.3 °C 1009.7 in /  34188.4 hPa NW 30.6 mph /  49.2 km/h 30.6 mph /  49.2 km/h 50 % 0.0 in /  0 mm 615.0 W/m2 CLR
13:03 8.9 °F /  -12.8 °C -1.0 °F /  -18.3 °C 1009.7 in /  34188.4 hPa North 29.6 mph /  47.6 km/h 29.6 mph /  47.6 km/h 50 % 0.0 in /  0 mm 624.0 W/m2 CLR
13:08 8.9 °F /  -12.8 °C -1.6 °F /  -18.7 °C 1009.4 in /  34178.3 hPa North 31.5 mph /  50.7 km/h 31.5 mph /  50.7 km/h 48 % 0.0 in /  0 mm 624.0 W/m2 CLR
13:13 9.4 °F /  -12.6 °C -1.1 °F /  -18.4 °C 1009.4 in /  34178.3 hPa NNW 37.0 mph /  59.5 km/h 37.0 mph /  59.5 km/h 48 % 0.0 in /  0 mm 647.0 W/m2 CLR
13:18 9.4 °F /  -12.6 °C -1.3 °F /  -18.5 °C 1009.4 in /  34178.3 hPa North 24.1 mph /  38.8 km/h 24.1 mph /  38.8 km/h 47 % 0.0 in /  0 mm 629.0 W/m2 CLR
13:23 8.9 °F /  -12.8 °C -1.8 °F /  -18.8 °C 1009.4 in /  34178.3 hPa NNW 29.6 mph /  47.6 km/h 29.6 mph /  47.6 km/h 47 % 0.0 in /  0 mm 638.0 W/m2 CLR
13:28 9.4 °F /  -12.6 °C -1.3 °F /  -18.5 °C 1009.4 in /  34178.3 hPa North 38.6 mph /  62.1 km/h 38.6 mph /  62.1 km/h 47 % 0.0 in /  0 mm 647.0 W/m2 CLR
13:33 9.4 °F /  -12.6 °C -1.3 °F /  -18.5 °C 1009.4 in /  34178.3 hPa NW 33.3 mph /  53.6 km/h 33.3 mph /  53.6 km/h 47 % 0.0 in /  0 mm 636.0 W/m2 CLR
13:38 9.4 °F /  -12.6 °C -1.6 °F /  -18.7 °C 1009.4 in /  34178.3 hPa NW 24.1 mph /  38.8 km/h 24.1 mph /  38.8 km/h 46 % 0.0 in /  0 mm 638.0 W/m2 CLR
13:43 9.4 °F /  -12.6 °C -1.3 °F /  -18.5 °C 1009.0 in /  34164.7 hPa NNW 29.6 mph /  47.6 km/h 29.6 mph /  47.6 km/h 47 % 0.0 in /  0 mm 636.0 W/m2 CLR
13:48 9.4 °F /  -12.6 °C -1.9 °F /  -18.8 °C 1009.0 in /  34164.7 hPa NNW 35.2 mph /  56.6 km/h 35.2 mph /  56.6 km/h 45 % 0.0 in /  0 mm 626.0 W/m2 CLR
13:53 9.4 °F /  -12.6 °C -1.6 °F /  -18.7 °C 1009.0 in /  34164.7 hPa NNW 25.9 mph /  41.7 km/h 25.9 mph /  41.7 km/h 46 % 0.0 in /  0 mm 629.0 W/m2 CLR
13:58 10.0 °F /  -12.2 °C -1.1 °F /  -18.4 °C 1009.0 in /  34164.7 hPa NNW 22.5 mph /  36.2 km/h 22.5 mph /  36.2 km/h 46 % 0.0 in /  0 mm 610.0 W/m2 CLR
14:03 10.0 °F /  -12.2 °C -1.4 °F /  -18.6 °C 1009.0 in /  34164.7 hPa NNW 29.6 mph /  47.6 km/h 29.6 mph /  47.6 km/h 45 % 0.0 in /  0 mm 621.0 W/m2 CLR
14:08 9.4 °F /  -12.6 °C -2.2 °F /  -19 °C 1009.0 in /  34164.7 hPa North 33.3 mph /  53.6 km/h 33.3 mph /  53.6 km/h 44 % 0.0 in /  0 mm 619.0 W/m2 CLR
14:13 10.0 °F /  -12.2 °C -1.4 °F /  -18.6 °C 1008.7 in /  34154.6 hPa North 27.8 mph /  44.7 km/h 27.8 mph /  44.7 km/h 45 % 0.0 in /  0 mm 608.0 W/m2 CLR
14:18 10.6 °F /  -11.9 °C -1.5 °F /  -18.6 °C 1008.7 in /  34154.6 hPa NW 31.5 mph /  50.7 km/h 31.5 mph /  50.7 km/h 43 % 0.0 in /  0 mm 621.0 W/m2 CLR
14:23 10.6 °F /  -11.9 °C -1.2 °F /  -18.4 °C 1008.7 in /  34154.6 hPa NNW 31.5 mph /  50.7 km/h 31.5 mph /  50.7 km/h 44 % 0.0 in /  0 mm 601.0 W/m2 CLR
14:28 10.6 °F /  -11.9 °C -1.8 °F /  -18.8 °C 1008.7 in /  34154.6 hPa North 31.5 mph /  50.7 km/h 31.5 mph /  50.7 km/h 42 % 0.0 in /  0 mm 587.0 W/m2 CLR
14:33 10.0 °F /  -12.2 °C -2.0 °F /  -18.9 °C 1008.7 in /  34154.6 hPa NW 24.1 mph /  38.8 km/h 24.1 mph /  38.8 km/h 43 % 0.0 in /  0 mm 596.0 W/m2 CLR
14:38 10.6 °F /  -11.9 °C -2.2 °F /  -19 °C 1008.7 in /  34154.6 hPa NNW 27.8 mph /  44.7 km/h 27.8 mph /  44.7 km/h 41 % 0.0 in /  0 mm 589.0 W/m2 CLR
14:43 10.6 °F /  -11.9 °C -2.2 °F /  -19 °C 1008.7 in /  34154.6 hPa NNW 24.1 mph /  38.8 km/h 24.6 mph /  39.6 km/h 41 % 0.0 in /  0 mm 584.0 W/m2 CLR
14:48 10.0 °F /  -12.2 °C -3.0 °F /  -19.4 °C 1008.7 in /  34154.6 hPa WNW 24.1 mph /  38.8 km/h 24.1 mph /  38.8 km/h 40 % 0.0 in /  0 mm 564.0 W/m2 CLR
14:54 10.0 °F /  -12.2 °C -2.7 °F /  -19.3 °C 1008.7 in /  34154.6 hPa NNW 20.4 mph /  32.8 km/h 20.4 mph /  32.8 km/h 41 % 0.0 in /  0 mm 545.0 W/m2 CLR
14:59 10.6 °F /  -11.9 °C -2.5 °F /  -19.2 °C 1008.7 in /  34154.6 hPa NW 22.5 mph /  36.2 km/h 22.5 mph /  36.2 km/h 40 % 0.0 in /  0 mm 536.0 W/m2 CLR
15:08 10.6 °F /  -11.9 °C -2.8 °F /  -19.3 °C 1008.4 in /  34144.4 hPa NW 33.3 mph /  53.6 km/h 33.3 mph /  53.6 km/h 39 % 0.0 in /  0 mm 531.0 W/m2 CLR
15:13 10.6 °F /  -11.9 °C -3.2 °F /  -19.6 °C 1008.4 in /  34144.4 hPa NNW 22.2 mph /  35.7 km/h 22.2 mph /  35.7 km/h 38 % 0.0 in /  0 mm 522.0 W/m2 CLR
15:18 10.6 °F /  -11.9 °C -2.8 °F /  -19.3 °C 1008.4 in /  34144.4 hPa WNW 29.6 mph /  47.6 km/h 29.6 mph /  47.6 km/h 39 % 0.0 in /  0 mm 512.0 W/m2 CLR
15:23 10.6 °F /  -11.9 °C -3.2 °F /  -19.6 °C 1008.0 in /  34130.9 hPa NW 29.6 mph /  47.6 km/h 29.6 mph /  47.6 km/h 38 % 0.0 in /  0 mm 504.0 W/m2 CLR
15:28 10.6 °F /  -11.9 °C -3.2 °F /  -19.6 °C 1008.0 in /  34130.9 hPa North 25.7 mph /  41.4 km/h 25.7 mph /  41.4 km/h 38 % 0.0 in /  0 mm 497.0 W/m2 CLR
15:33 10.6 °F /  -11.9 °C -3.2 °F /  -19.6 °C 1008.0 in /  34130.9 hPa NW 25.9 mph /  41.7 km/h 25.9 mph /  41.7 km/h 38 % 0.0 in /  0 mm 473.0 W/m2 CLR
15:38 10.6 °F /  -11.9 °C -3.9 °F /  -19.9 °C 1008.0 in /  34130.9 hPa NNW 25.9 mph /  41.7 km/h 25.9 mph /  41.7 km/h 36 % 0.0 in /  0 mm 478.0 W/m2 CLR
15:43 10.6 °F /  -11.9 °C -3.9 °F /  -19.9 °C 1008.0 in /  34130.9 hPa North 24.1 mph /  38.8 km/h 24.1 mph /  38.8 km/h 36 % 0.0 in /  0 mm 464.0 W/m2 CLR
15:48 10.6 °F /  -11.9 °C -3.9 °F /  -19.9 °C 1008.0 in /  34130.9 hPa NW 22.2 mph /  35.7 km/h 22.2 mph /  35.7 km/h 36 % 0.0 in /  0 mm 452.0 W/m2 CLR
15:53 11.1 °F /  -11.6 °C -3.1 °F /  -19.5 °C 1008.0 in /  34130.9 hPa NNW 32.2 mph /  51.8 km/h 32.2 mph /  51.8 km/h 37 % 0.0 in /  0 mm 439.0 W/m2 CLR
15:58 10.6 °F /  -11.9 °C -3.6 °F /  -19.8 °C 1008.0 in /  34130.9 hPa NW 29.6 mph /  47.6 km/h 29.6 mph /  47.6 km/h 37 % 0.0 in /  0 mm 434.0 W/m2 CLR
16:03 11.1 °F /  -11.6 °C -3.4 °F /  -19.7 °C 1008.0 in /  34130.9 hPa NW 33.3 mph /  53.6 km/h 33.3 mph /  53.6 km/h 36 % 0.0 in /  0 mm 420.0 W/m2 CLR
16:08 10.6 °F /  -11.9 °C -3.6 °F /  -19.8 °C 1007.7 in /  34120.7 hPa NW 22.2 mph /  35.7 km/h 22.2 mph /  35.7 km/h 37 % 0.0 in /  0 mm 406.0 W/m2 CLR
16:13 10.6 °F /  -11.9 °C -4.3 °F /  -20.2 °C 1007.7 in /  34120.7 hPa NW 31.5 mph /  50.7 km/h 31.5 mph /  50.7 km/h 35 % 0.0 in /  0 mm 388.0 W/m2 CLR
16:18 10.6 °F /  -11.9 °C -4.3 °F /  -20.2 °C 1007.7 in /  34120.7 hPa NNW 30.6 mph /  49.2 km/h 30.6 mph /  49.2 km/h 35 % 0.0 in /  0 mm 369.0 W/m2 CLR
16:23 10.6 °F /  -11.9 °C -3.9 °F /  -19.9 °C 1007.7 in /  34120.7 hPa NNW 20.9 mph /  33.6 km/h 20.9 mph /  33.6 km/h 36 % 0.0 in /  0 mm 360.0 W/m2 CLR
16:28 10.6 °F /  -11.9 °C -4.3 °F /  -20.2 °C 1007.7 in /  34120.7 hPa NW 22.2 mph /  35.7 km/h 22.2 mph /  35.7 km/h 35 % 0.0 in /  0 mm 346.0 W/m2 CLR
16:33 10.6 °F /  -11.9 °C -4.3 °F /  -20.2 °C 1007.7 in /  34120.7 hPa North 24.1 mph /  38.8 km/h 24.1 mph /  38.8 km/h 35 % 0.0 in /  0 mm 332.0 W/m2 CLR
16:38 10.6 °F /  -11.9 °C -4.7 °F /  -20.4 °C 1007.7 in /  34120.7 hPa North 22.2 mph /  35.7 km/h 22.2 mph /  35.7 km/h 34 % 0.0 in /  0 mm 315.0 W/m2 CLR
16:43 10.6 °F /  -11.9 °C -4.7 °F /  -20.4 °C 1007.7 in /  34120.7 hPa NW 24.1 mph /  38.8 km/h 24.1 mph /  38.8 km/h 34 % 0.0 in /  0 mm 306.0 W/m2 CLR
16:48 10.6 °F /  -11.9 °C -4.7 °F /  -20.4 °C 1007.7 in /  34120.7 hPa North 22.5 mph /  36.2 km/h 22.5 mph /  36.2 km/h 34 % 0.0 in /  0 mm 288.0 W/m2 CLR
16:53 10.6 °F /  -11.9 °C -4.7 °F /  -20.4 °C 1007.7 in /  34120.7 hPa North 29.6 mph /  47.6 km/h 29.6 mph /  47.6 km/h 34 % 0.0 in /  0 mm 276.0 W/m2 CLR
16:58 10.6 °F /  -11.9 °C -5.1 °F /  -20.6 °C 1007.7 in /  34120.7 hPa NNW 24.1 mph /  38.8 km/h 24.1 mph /  38.8 km/h 33 % 0.0 in /  0 mm 262.0 W/m2 CLR
17:03 10.6 °F /  -11.9 °C -5.1 °F /  -20.6 °C 1007.7 in /  34120.7 hPa North 24.1 mph /  38.8 km/h 24.1 mph /  38.8 km/h 33 % 0.0 in /  0 mm 246.0 W/m2 CLR
17:08 10.6 °F /  -11.9 °C -4.7 °F /  -20.4 °C 1007.7 in /  34120.7 hPa NNW 29.6 mph /  47.6 km/h 29.6 mph /  47.6 km/h 34 % 0.0 in /  0 mm 227.0 W/m2 CLR
17:13 10.0 °F /  -12.2 °C -5.2 °F /  -20.7 °C 1007.7 in /  34120.7 hPa NW 27.4 mph /  44.1 km/h 27.4 mph /  44.1 km/h 34 % 0.0 in /  0 mm 209.0 W/m2 CLR
17:18 10.0 °F /  -12.2 °C -4.8 °F /  -20.4 °C 1007.7 in /  34120.7 hPa NW 19.3 mph /  31.1 km/h 19.3 mph /  31.1 km/h 35 % 0.0 in /  0 mm 193.0 W/m2 CLR
17:23 9.4 °F /  -12.6 °C -5.7 °F /  -20.9 °C 1008.0 in /  34130.9 hPa NW 31.5 mph /  50.7 km/h 31.5 mph /  50.7 km/h 34 % 0.0 in /  0 mm 176.0 W/m2 CLR
17:28 9.4 °F /  -12.6 °C -5.7 °F /  -20.9 °C 1008.0 in /  34130.9 hPa NW 29.6 mph /  47.6 km/h 29.6 mph /  47.6 km/h 34 % 0.0 in /  0 mm 155.0 W/m2 CLR
17:33 9.4 °F /  -12.6 °C -5.3 °F /  -20.7 °C 1008.0 in /  34130.9 hPa NNW 33.3 mph /  53.6 km/h 33.3 mph /  53.6 km/h 35 % 0.0 in /  0 mm 137.0 W/m2 CLR
17:38 9.4 °F /  -12.6 °C -5.3 °F /  -20.7 °C 1008.0 in /  34130.9 hPa North 33.3 mph /  53.6 km/h 33.3 mph /  53.6 km/h 35 % 0.0 in /  0 mm 121.0 W/m2 CLR
17:43 9.4 °F /  -12.6 °C -5.3 °F /  -20.7 °C 1008.0 in /  34130.9 hPa NW 22.2 mph /  35.7 km/h 22.2 mph /  35.7 km/h 35 % 0.0 in /  0 mm 105.0 W/m2 CLR
17:48 8.9 °F /  -12.8 °C -5.8 °F /  -21 °C 1007.7 in /  34120.7 hPa NNW 29.0 mph /  46.7 km/h 29.0 mph /  46.7 km/h 35 % 0.0 in /  0 mm 91.0 W/m2 CLR
17:53 8.9 °F /  -12.8 °C -5.8 °F /  -21 °C 1007.7 in /  34120.7 hPa NW 22.2 mph /  35.7 km/h 22.2 mph /  35.7 km/h 35 % 0.0 in /  0 mm 69.0 W/m2 FEW
17:58 8.9 °F /  -12.8 °C -5.8 °F /  -21 °C 1007.7 in /  34120.7 hPa NW 18.5 mph /  29.8 km/h 18.5 mph /  29.8 km/h 35 % 0.0 in /  0 mm 60.0 W/m2 SCT
18:03 8.3 °F /  -13.2 °C -5.9 °F /  -21.1 °C 1007.7 in /  34120.7 hPa NW 24.1 mph /  38.8 km/h 24.1 mph /  38.8 km/h 36 % 0.0 in /  0 mm 49.0 W/m2 SCT
18:08 8.3 °F /  -13.2 °C -6.3 °F /  -21.3 °C 1007.7 in /  34120.7 hPa NW 29.0 mph /  46.7 km/h 29.0 mph /  46.7 km/h 35 % 0.0 in /  0 mm 40.0 W/m2 BKN
18:13 8.3 °F /  -13.2 °C -6.3 °F /  -21.3 °C 1007.7 in /  34120.7 hPa NNW 31.5 mph /  50.7 km/h 31.5 mph /  50.7 km/h 35 % 0.0 in /  0 mm 28.0 W/m2 BKN
18:18 7.8 °F /  -13.4 °C -6.8 °F /  -21.6 °C 1007.7 in /  34120.7 hPa NW 31.5 mph /  50.7 km/h 31.5 mph /  50.7 km/h 35 % 0.0 in /  0 mm 21.0 W/m2 BKN
18:23 7.8 °F /  -13.4 °C -6.8 °F /  -21.6 °C 1008.0 in /  34130.9 hPa WNW 25.9 mph /  41.7 km/h 25.9 mph /  41.7 km/h 35 % 0.0 in /  0 mm 18.0 W/m2 BKN
18:28 7.8 °F /  -13.4 °C -6.8 °F /  -21.6 °C 1008.0 in /  34130.9 hPa NW 20.4 mph /  32.8 km/h 20.4 mph /  32.8 km/h 35 % 0.0 in /  0 mm 14.0 W/m2 BKN
18:33 7.8 °F /  -13.4 °C -6.8 °F /  -21.6 °C 1008.0 in /  34130.9 hPa NW 18.5 mph /  29.8 km/h 18.5 mph /  29.8 km/h 35 % 0.0 in /  0 mm 11.0 W/m2 BKN
18:38 7.2 °F /  -13.8 °C -7.2 °F /  -21.8 °C 1007.7 in /  34120.7 hPa WNW 22.2 mph /  35.7 km/h 22.2 mph /  35.7 km/h 35 % 0.0 in /  0 mm 7.0 W/m2 BKN
18:43 7.2 °F /  -13.8 °C -7.6 °F /  -22 °C 1008.0 in /  34130.9 hPa NW 18.5 mph /  29.8 km/h 18.5 mph /  29.8 km/h 34 % 0.0 in /  0 mm 5.0 W/m2 OVC
18:48 7.2 °F /  -13.8 °C -7.6 °F /  -22 °C 1008.0 in /  34130.9 hPa NW 20.4 mph /  32.8 km/h 20.4 mph /  32.8 km/h 34 % 0.0 in /  0 mm 0.0 W/m2 OVC
18:53 7.2 °F /  -13.8 °C -7.6 °F /  -22 °C 1008.0 in /  34130.9 hPa NW 16.7 mph /  26.9 km/h 16.7 mph /  26.9 km/h 34 % 0.0 in /  0 mm 0.0 W/m2 CLR
18:58 7.2 °F /  -13.8 °C -8.0 °F /  -22.2 °C 1008.0 in /  34130.9 hPa NW 22.2 mph /  35.7 km/h 22.2 mph /  35.7 km/h 33 % 0.0 in /  0 mm 0.0 W/m2 CLR
19:03 6.7 °F /  -14.1 °C -8.5 °F /  -22.5 °C 1008.4 in /  34144.4 hPa NW 19.3 mph /  31.1 km/h 19.3 mph /  31.1 km/h 33 % 0.0 in /  0 mm 0.0 W/m2 CLR
19:08 6.7 °F /  -14.1 °C -8.5 °F /  -22.5 °C 1008.4 in /  34144.4 hPa WNW 20.4 mph /  32.8 km/h 20.4 mph /  32.8 km/h 33 % 0.0 in /  0 mm 0.0 W/m2 CLR
19:13 6.7 °F /  -14.1 °C -8.5 °F /  -22.5 °C 1008.4 in /  34144.4 hPa NW 27.8 mph /  44.7 km/h 27.8 mph /  44.7 km/h 33 % 0.0 in /  0 mm 0.0 W/m2 CLR
19:18 6.7 °F /  -14.1 °C -8.9 °F /  -22.7 °C 1008.4 in /  34144.4 hPa WNW 31.5 mph /  50.7 km/h 31.5 mph /  50.7 km/h 32 % 0.0 in /  0 mm 0.0 W/m2 CLR
19:23 6.7 °F /  -14.1 °C -8.9 °F /  -22.7 °C 1008.4 in /  34144.4 hPa NW 25.9 mph /  41.7 km/h 25.9 mph /  41.7 km/h 32 % 0.0 in /  0 mm 0.0 W/m2 CLR
19:28 6.7 °F /  -14.1 °C -8.9 °F /  -22.7 °C 1008.4 in /  34144.4 hPa NNW 31.5 mph /  50.7 km/h 31.5 mph /  50.7 km/h 32 % 0.0 in /  0 mm 0.0 W/m2 CLR
19:33 6.7 °F /  -14.1 °C -8.9 °F /  -22.7 °C 1008.4 in /  34144.4 hPa NW 27.8 mph /  44.7 km/h 27.8 mph /  44.7 km/h 32 % 0.0 in /  0 mm 0.0 W/m2 CLR
19:38 6.1 °F /  -14.4 °C -9.4 °F /  -23 °C 1008.4 in /  34144.4 hPa WNW 33.3 mph /  53.6 km/h 33.3 mph /  53.6 km/h 32 % 0.0 in /  0 mm 0.0 W/m2 CLR
19:44 6.1 °F /  -14.4 °C -9.4 °F /  -23 °C 1008.4 in /  34144.4 hPa NW 25.9 mph /  41.7 km/h 25.9 mph /  41.7 km/h 32 % 0.0 in /  0 mm 0.0 W/m2 CLR
19:49 6.1 °F /  -14.4 °C -9.4 °F /  -23 °C 1008.7 in /  34154.6 hPa NW 29.6 mph /  47.6 km/h 29.6 mph /  47.6 km/h 32 % 0.0 in /  0 mm 0.0 W/m2 CLR
19:54 6.1 °F /  -14.4 °C -9.4 °F /  -23 °C 1008.7 in /  34154.6 hPa NW 33.3 mph /  53.6 km/h 33.3 mph /  53.6 km/h 32 % 0.0 in /  0 mm 0.0 W/m2 CLR
19:59 6.1 °F /  -14.4 °C -9.0 °F /  -22.8 °C 1008.4 in /  34144.4 hPa NW 37.0 mph /  59.5 km/h 37.0 mph /  59.5 km/h 33 % 0.0 in /  0 mm 0.0 W/m2 CLR
20:04 6.1 °F /  -14.4 °C -9.0 °F /  -22.8 °C 1008.7 in /  34154.6 hPa NW 29.6 mph /  47.6 km/h 29.6 mph /  47.6 km/h 33 % 0.0 in /  0 mm 0.0 W/m2 CLR
20:09 6.1 °F /  -14.4 °C -9.0 °F /  -22.8 °C 1008.7 in /  34154.6 hPa NNW 24.1 mph /  38.8 km/h 24.1 mph /  38.8 km/h 33 % 0.0 in /  0 mm 0.0 W/m2 CLR
20:14 5.6 °F /  -14.7 °C -9.5 °F /  -23.1 °C 1008.7 in /  34154.6 hPa NW 38.9 mph /  62.6 km/h 38.9 mph /  62.6 km/h 33 % 0.0 in /  0 mm 0.0 W/m2 CLR
20:19 5.6 °F /  -14.7 °C -9.1 °F /  -22.8 °C 1008.7 in /  34154.6 hPa WNW 29.0 mph /  46.7 km/h 29.0 mph /  46.7 km/h 34 % 0.0 in /  0 mm 0.0 W/m2 CLR
20:24 5.6 °F /  -14.7 °C -9.1 °F /  -22.8 °C 1008.7 in /  34154.6 hPa NW 29.6 mph /  47.6 km/h 29.6 mph /  47.6 km/h 34 % 0.0 in /  0 mm 0.0 W/m2 CLR
20:29 5.6 °F /  -14.7 °C -9.1 °F /  -22.8 °C 1008.7 in /  34154.6 hPa NW 33.3 mph /  53.6 km/h 33.3 mph /  53.6 km/h 34 % 0.0 in /  0 mm 0.0 W/m2 CLR
20:34 5.6 °F /  -14.7 °C -8.7 °F /  -22.6 °C 1008.7 in /  34154.6 hPa NW 35.2 mph /  56.6 km/h 35.2 mph /  56.6 km/h 35 % 0.0 in /  0 mm 0.0 W/m2 CLR
20:39 5.6 °F /  -14.7 °C -9.1 °F /  -22.8 °C 1008.7 in /  34154.6 hPa WNW 31.5 mph /  50.7 km/h 31.5 mph /  50.7 km/h 34 % 0.0 in /  0 mm 0.0 W/m2 CLR
20:44 5.6 °F /  -14.7 °C -8.7 °F /  -22.6 °C 1008.7 in /  34154.6 hPa NW 38.9 mph /  62.6 km/h 38.9 mph /  62.6 km/h 35 % 0.0 in /  0 mm 0.0 W/m2 CLR
20:49 5.0 °F /  -15 °C -9.2 °F /  -22.9 °C 1009.0 in /  34164.7 hPa NW 31.5 mph /  50.7 km/h 31.5 mph /  50.7 km/h 35 % 0.0 in /  0 mm 0.0 W/m2 CLR
20:54 5.0 °F /  -15 °C -8.9 °F /  -22.7 °C 1009.0 in /  34164.7 hPa NW 35.4 mph /  57 km/h 35.4 mph /  57 km/h 36 % 0.0 in /  0 mm 0.0 W/m2 CLR
20:59 5.0 °F /  -15 °C -8.9 °F /  -22.7 °C 1009.0 in /  34164.7 hPa WNW 24.1 mph /  38.8 km/h 24.1 mph /  38.8 km/h 36 % 0.0 in /  0 mm 0.0 W/m2 CLR
21:04 5.0 °F /  -15 °C -8.5 °F /  -22.5 °C 1009.0 in /  34164.7 hPa NW 33.3 mph /  53.6 km/h 33.3 mph /  53.6 km/h 37 % 0.0 in /  0 mm 0.0 W/m2 CLR
21:09 5.0 °F /  -15 °C -8.5 °F /  -22.5 °C 1009.0 in /  34164.7 hPa NW 31.5 mph /  50.7 km/h 31.5 mph /  50.7 km/h 37 % 0.0 in /  0 mm 0.0 W/m2 CLR
21:14 5.0 °F /  -15 °C -8.2 °F /  -22.3 °C 1009.4 in /  34178.3 hPa NW 29.6 mph /  47.6 km/h 29.6 mph /  47.6 km/h 38 % 0.0 in /  0 mm 0.0 W/m2 CLR
21:19 4.4 °F /  -15.3 °C -8.7 °F /  -22.6 °C 1009.0 in /  34164.7 hPa NW 31.5 mph /  50.7 km/h 31.5 mph /  50.7 km/h 38 % 0.0 in /  0 mm 0.0 W/m2 CLR
21:24 4.4 °F /  -15.3 °C -8.7 °F /  -22.6 °C 1009.0 in /  34164.7 hPa NW 25.9 mph /  41.7 km/h 25.9 mph /  41.7 km/h 38 % 0.0 in /  0 mm 0.0 W/m2 CLR
21:29 4.4 °F /  -15.3 °C -8.3 °F /  -22.4 °C 1009.4 in /  34178.3 hPa NW 32.2 mph /  51.8 km/h 32.2 mph /  51.8 km/h 39 % 0.0 in /  0 mm 0.0 W/m2 CLR
21:34 4.4 °F /  -15.3 °C -8.3 °F /  -22.4 °C 1009.4 in /  34178.3 hPa WNW 29.6 mph /  47.6 km/h 29.6 mph /  47.6 km/h 39 % 0.0 in /  0 mm 0.0 W/m2 CLR
21:39 4.4 °F /  -15.3 °C -8.0 °F /  -22.2 °C 1009.4 in /  34178.3 hPa NW 27.8 mph /  44.7 km/h 27.8 mph /  44.7 km/h 40 % 0.0 in /  0 mm 0.0 W/m2 CLR
21:44 4.4 °F /  -15.3 °C -8.0 °F /  -22.2 °C 1009.4 in /  34178.3 hPa NW 22.5 mph /  36.2 km/h 22.5 mph /  36.2 km/h 40 % 0.0 in /  0 mm 0.0 W/m2 CLR
21:49 4.4 °F /  -15.3 °C -7.7 °F /  -22.1 °C 1009.7 in /  34188.4 hPa WNW 25.9 mph /  41.7 km/h 25.9 mph /  41.7 km/h 41 % 0.0 in /  0 mm 0.0 W/m2 CLR
21:54 4.4 °F /  -15.3 °C -7.7 °F /  -22.1 °C 1009.7 in /  34188.4 hPa NW 29.6 mph /  47.6 km/h 29.6 mph /  47.6 km/h 41 % 0.0 in /  0 mm 0.0 W/m2 CLR
21:59 3.9 °F /  -15.6 °C -8.2 °F /  -22.3 °C 1009.7 in /  34188.4 hPa WNW 24.1 mph /  38.8 km/h 24.1 mph /  38.8 km/h 41 % 0.0 in /  0 mm 0.0 W/m2 CLR
22:04 3.9 °F /  -15.6 °C -7.9 °F /  -22.2 °C 1010.0 in /  34198.6 hPa West 20.4 mph /  32.8 km/h 20.4 mph /  32.8 km/h 42 % 0.0 in /  0 mm 0.0 W/m2 CLR
22:09 3.9 °F /  -15.6 °C -7.6 °F /  -22 °C 1010.0 in /  34198.6 hPa WNW 18.5 mph /  29.8 km/h 18.5 mph /  29.8 km/h 43 % 0.0 in /  0 mm 0.0 W/m2 CLR
22:14 3.9 °F /  -15.6 °C -7.6 °F /  -22 °C 1010.0 in /  34198.6 hPa WNW 24.1 mph /  38.8 km/h 24.1 mph /  38.8 km/h 43 % 0.0 in /  0 mm 0.0 W/m2 CLR
22:19 3.9 °F /  -15.6 °C -7.3 °F /  -21.8 °C 1010.0 in /  34198.6 hPa WNW 25.9 mph /  41.7 km/h 25.9 mph /  41.7 km/h 44 % 0.0 in /  0 mm 0.0 W/m2 CLR
22:24 3.9 °F /  -15.6 °C -7.0 °F /  -21.7 °C 1010.0 in /  34198.6 hPa NW 35.2 mph /  56.6 km/h 35.2 mph /  56.6 km/h 45 % 0.0 in /  0 mm 0.0 W/m2 CLR
22:29 3.9 °F /  -15.6 °C -6.7 °F /  -21.5 °C 1010.0 in /  34198.6 hPa NW 31.5 mph /  50.7 km/h 31.5 mph /  50.7 km/h 46 % 0.0 in /  0 mm 0.0 W/m2 CLR
22:34 3.9 °F /  -15.6 °C -6.7 °F /  -21.5 °C 1010.0 in /  34198.6 hPa NW 31.5 mph /  50.7 km/h 31.5 mph /  50.7 km/h 46 % 0.0 in /  0 mm 0.0 W/m2 CLR
22:39 3.3 °F /  -15.9 °C -6.9 °F /  -21.6 °C 1010.0 in /  34198.6 hPa NW 31.5 mph /  50.7 km/h 31.5 mph /  50.7 km/h 47 % 0.0 in /  0 mm 0.0 W/m2 CLR
22:44 3.3 °F /  -15.9 °C -6.9 °F /  -21.6 °C 1010.0 in /  34198.6 hPa WNW 27.8 mph /  44.7 km/h 27.8 mph /  44.7 km/h 47 % 0.0 in /  0 mm 0.0 W/m2 CLR
22:49 3.3 °F /  -15.9 °C -6.7 °F /  -21.5 °C 1010.0 in /  34198.6 hPa NW 31.5 mph /  50.7 km/h 31.5 mph /  50.7 km/h 48 % 0.0 in /  0 mm 0.0 W/m2 CLR
22:54 3.3 °F /  -15.9 °C -6.4 °F /  -21.3 °C 1010.0 in /  34198.6 hPa NW 25.9 mph /  41.7 km/h 25.9 mph /  41.7 km/h 49 % 0.0 in /  0 mm 0.0 W/m2 CLR
22:59 3.3 °F /  -15.9 °C -6.1 °F /  -21.2 °C 1010.0 in /  34198.6 hPa NW 24.1 mph /  38.8 km/h 24.1 mph /  38.8 km/h 50 % 0.0 in /  0 mm 0.0 W/m2 CLR
23:04 3.3 °F /  -15.9 °C -6.1 °F /  -21.2 °C 1010.4 in /  34212.1 hPa WNW 25.9 mph /  41.7 km/h 25.9 mph /  41.7 km/h 50 % 0.0 in /  0 mm 0.0 W/m2 CLR
23:09 3.3 °F /  -15.9 °C -6.1 °F /  -21.2 °C 1010.0 in /  34198.6 hPa NW 27.8 mph /  44.7 km/h 27.8 mph /  44.7 km/h 50 % 0.0 in /  0 mm 0.0 W/m2 CLR
23:14 3.3 °F /  -15.9 °C -5.8 °F /  -21 °C 1010.4 in /  34212.1 hPa NW 25.9 mph /  41.7 km/h 25.9 mph /  41.7 km/h 51 % 0.0 in /  0 mm 0.0 W/m2 CLR
23:19 2.8 °F /  -16.2 °C -6.4 °F /  -21.3 °C 1010.4 in /  34212.1 hPa WNW 29.6 mph /  47.6 km/h 29.6 mph /  47.6 km/h 51 % 0.0 in /  0 mm 0.0 W/m2 CLR
23:24 2.8 °F /  -16.2 °C -6.1 °F /  -21.2 °C 1010.4 in /  34212.1 hPa NW 22.2 mph /  35.7 km/h 22.2 mph /  35.7 km/h 52 % 0.0 in /  0 mm 0.0 W/m2 CLR
23:29 2.8 °F /  -16.2 °C -6.1 °F /  -21.2 °C 1010.4 in /  34212.1 hPa WNW 29.6 mph /  47.6 km/h 29.6 mph /  47.6 km/h 52 % 0.0 in /  0 mm 0.0 W/m2 CLR
23:34 2.8 °F /  -16.2 °C -5.9 °F /  -21.1 °C 1010.7 in /  34222.3 hPa WNW 35.2 mph /  56.6 km/h 35.2 mph /  56.6 km/h 53 % 0.0 in /  0 mm 0.0 W/m2 CLR
23:39 2.8 °F /  -16.2 °C -5.9 °F /  -21.1 °C 1010.7 in /  34222.3 hPa WNW 27.8 mph /  44.7 km/h 27.8 mph /  44.7 km/h 53 % 0.0 in /  0 mm 0.0 W/m2 CLR
23:44 2.2 °F /  -16.6 °C -6.2 °F /  -21.2 °C 1010.7 in /  34222.3 hPa NW 33.3 mph /  53.6 km/h 33.3 mph /  53.6 km/h 54 % 0.0 in /  0 mm 0.0 W/m2 CLR
23:49 2.2 °F /  -16.6 °C -6.2 °F /  -21.2 °C 1010.7 in /  34222.3 hPa WNW 33.3 mph /  53.6 km/h 33.3 mph /  53.6 km/h 54 % 0.0 in /  0 mm 0.0 W/m2 CLR
23:54 2.2 °F /  -16.6 °C -5.9 °F /  -21.1 °C 1010.7 in /  34222.3 hPa WNW 29.6 mph /  47.6 km/h 29.6 mph /  47.6 km/h 55 % 0.0 in /  0 mm 0.0 W/m2 CLR
23:59 2.2 °F /  -16.6 °C -5.7 °F /  -20.9 °C 1010.7 in /  34222.3 hPa WNW 27.8 mph /  44.7 km/h 27.8 mph /  44.7 km/h 56 % 0.0 in /  0 mm 0.0 W/m2 CLR
Lo Temps de Massalio
Compliments of Weather Underground - 1.25 mb